Time;durP1;ratioP1;P1;durP2;ratioP2;P2;SDS_P1;SDS_P2;PMS_P1;PMS_P2;Temp;Humidity;BMP_temperature;BMP_pressure;BME280_temperature;BME280_humidity;BME280_pressure;Samples;Min_cycle;Max_cycle;Signal;HPM_P1;HPM_P2
2022/01/23 00:00:58;;;;;;;9.83;8.43;;;6.00;93.30;;;;;;5099848;28;20429;-46
2022/01/23 00:03:24;;;;;;;10.47;8.73;;;5.90;93.30;;;;;;5099822;28;20509;-45
2022/01/23 00:05:51;;;;;;;8.00;6.97;;;6.00;93.30;;;;;;5100393;28;20866;-46
2022/01/23 00:08:21;;;;;;;8.13;7.30;;;5.90;93.40;;;;;;5100447;28;20411;-45
2022/01/23 00:11:03;;;;;;;7.70;6.90;;;5.90;93.40;;;;;;5098875;28;20448;-46
2022/01/23 00:17:17;;;;;;;9.53;8.40;;;5.90;93.40;;;;;;5100987;28;20732;-46
2022/01/23 00:18:58;;;;;;;8.53;7.30;;;5.90;93.50;;;;;;5099255;28;20923;-46
2022/01/23 00:21:24;;;;;;;10.50;8.27;;;5.90;93.50;;;;;;5098766;28;20462;-46
2022/01/23 00:31:43;;;;;;;7.80;7.00;;;5.80;93.40;;;;;;5098743;28;20716;-46
2022/01/23 00:34:09;;;;;;;8.00;6.90;;;5.80;93.40;;;;;;5099024;28;20426;-46
2022/01/23 00:36:37;;;;;;;8.97;7.20;;;5.80;93.40;;;;;;5099602;28;20200;-47
2022/01/23 00:39:04;;;;;;;8.37;6.87;;;5.80;93.40;;;;;;5099806;28;20200;-47
2022/01/23 00:41:31;;;;;;;8.90;7.83;;;5.80;93.40;;;;;;5098996;28;20419;-47
2022/01/23 00:43:57;;;;;;;8.70;7.33;;;5.80;93.40;;;;;;5099875;28;20407;-47
2022/01/23 00:46:31;;;;;;;8.60;7.00;;;5.80;93.40;;;;;;5100217;28;20758;-47
2022/01/23 00:51:32;;;;;;;9.87;8.07;;;5.80;93.40;;;;;;5099464;28;20838;-47
2022/01/23 00:53:59;;;;;;;9.30;7.40;;;5.80;93.50;;;;;;5098940;28;20417;-47
2022/01/23 00:56:25;;;;;;;10.10;8.00;;;5.80;93.40;;;;;;5081483;28;20450;-47
2022/01/23 00:58:51;;;;;;;9.07;7.63;;;5.80;93.40;;;;;;5098922;28;20531;-47
2022/01/23 01:01:17;;;;;;;10.00;7.53;;;5.80;93.40;;;;;;5080916;28;20780;-47
2022/01/23 01:03:43;;;;;;;9.97;7.73;;;5.80;93.40;;;;;;5080781;28;20453;-47
2022/01/23 01:06:09;;;;;;;11.80;8.00;;;5.80;93.40;;;;;;5099276;28;20562;-47
2022/01/23 01:08:35;;;;;;;9.13;8.20;;;5.80;93.40;;;;;;5099030;28;20476;-47
2022/01/23 01:13:54;;;;;;;8.30;7.20;;;5.80;93.40;;;;;;5099271;28;20429;-47
2022/01/23 01:35:24;;;;;;;9.73;7.17;;;5.70;93.60;;;;;;5097729;28;20544;-47
2022/01/23 01:37:50;;;;;;;10.57;8.53;;;5.70;93.60;;;;;;5080606;28;20478;-47
2022/01/23 01:40:16;;;;;;;9.43;7.30;;;5.70;93.60;;;;;;5098932;28;20410;-45
2022/01/23 01:42:44;;;;;;;10.50;7.73;;;5.70;93.70;;;;;;5098630;28;20457;-45
2022/01/23 01:45:09;;;;;;;9.80;7.20;;;5.70;93.70;;;;;;5098894;28;20415;-45
2022/01/23 01:47:35;;;;;;;9.87;7.83;;;5.70;93.70;;;;;;5098737;28;20795;-45
2022/01/23 01:50:01;;;;;;;9.53;7.50;;;5.70;93.70;;;;;;5098405;28;20181;-46
2022/01/23 01:52:26;;;;;;;9.13;7.87;;;5.70;93.70;;;;;;5098394;28;20448;-46
2022/01/23 01:55:00;;;;;;;9.43;7.93;;;5.70;93.70;;;;;;5098566;28;20211;-47
2022/01/23 01:57:31;;;;;;;8.50;7.60;;;5.70;93.70;;;;;;5098442;28;20191;-47
2022/01/23 02:00:38;;;;;;;8.90;7.00;;;5.80;93.80;;;;;;5098187;28;20437;-47
2022/01/23 02:08:29;;;;;;;9.70;8.20;;;5.80;93.80;;;;;;5097479;28;20957;-47
2022/01/23 02:11:04;;;;;;;7.67;6.87;;;5.80;93.80;;;;;;5097575;28;20531;-46
2022/01/23 02:13:34;;;;;;;10.33;8.60;;;5.80;93.80;;;;;;5097074;28;20430;-47
2022/01/23 02:52:28;;;;;;;9.70;7.00;;;5.80;94.10;;;;;;5097061;28;20473;-47
2022/01/23 02:55:08;;;;;;;10.87;7.97;;;5.80;94.10;;;;;;5096898;28;20422;-46
2022/01/23 02:57:51;;;;;;;9.00;7.67;;;5.80;94.10;;;;;;5097832;28;20450;-46
2022/01/23 03:00:19;;;;;;;9.80;7.80;;;5.80;94.20;;;;;;5088897;28;20440;-45
2022/01/23 03:02:48;;;;;;;9.37;8.37;;;5.70;94.10;;;;;;5097988;28;20433;-46
2022/01/23 03:05:24;;;;;;;9.77;7.77;;;5.70;94.20;;;;;;5097217;28;20458;-46
2022/01/23 03:10:44;;;;;;;12.47;9.97;;;5.70;94.20;;;;;;5096739;28;20869;-46
2022/01/23 03:34:06;;;;;;;11.83;9.47;;;5.70;94.40;;;;;;5121721;28;20464;-45
2022/01/23 03:36:32;;;;;;;11.60;8.80;;;5.70;94.40;;;;;;5103558;28;20196;-45
2022/01/23 03:38:57;;;;;;;10.60;8.77;;;5.70;94.40;;;;;;5121779;28;20512;-46
2022/01/23 03:41:23;;;;;;;10.27;9.10;;;5.70;94.40;;;;;;5121041;28;20191;-46
2022/01/23 03:43:49;;;;;;;12.37;9.87;;;5.70;94.40;;;;;;5121802;28;20240;-46
2022/01/23 03:46:33;;;;;;;11.77;9.17;;;5.70;94.40;;;;;;5121104;28;20264;-46
2022/01/23 03:51:43;;;;;;;10.10;8.60;;;5.70;94.40;;;;;;5121157;28;20536;-46
2022/01/23 03:54:08;;;;;;;11.60;9.27;;;5.70;94.40;;;;;;5121214;28;20445;-46
2022/01/23 03:56:34;;;;;;;10.83;9.37;;;5.70;94.40;;;;;;5120997;28;20184;-46
2022/01/23 03:59:00;;;;;;;12.90;8.23;;;5.70;94.40;;;;;;5120679;28;20204;-46
2022/01/23 04:01:25;;;;;;;10.47;9.17;;;5.70;94.40;;;;;;5119316;28;20717;-46
2022/01/23 04:03:54;;;;;;;10.87;8.93;;;5.70;94.40;;;;;;5119721;28;20283;-46
2022/01/23 04:06:20;;;;;;;12.00;8.53;;;5.70;94.40;;;;;;5118837;28;20692;-46
2022/01/23 04:08:45;;;;;;;12.30;9.10;;;5.70;94.40;;;;;;5118694;28;20421;-46
2022/01/23 04:11:11;;;;;;;12.20;9.33;;;5.70;94.40;;;;;;5119354;28;20220;-46
2022/01/23 04:13:56;;;;;;;10.73;8.10;;;5.70;94.40;;;;;;5119990;28;20204;-46
2022/01/23 04:33:12;;;;;;;11.70;8.70;;;5.70;94.50;;;;;;5068875;28;20900;-46
2022/01/23 05:00:10;;;;;;;12.47;9.50;;;5.70;94.40;;;;;;5119698;28;20594;-46
2022/01/23 05:05:14;;;;;;;13.20;9.87;;;5.70;94.40;;;;;;5119631;28;20409;-48
2022/01/23 05:07:44;;;;;;;13.07;9.67;;;5.70;94.50;;;;;;5102029;28;20474;-48
2022/01/23 05:10:10;;;;;;;10.97;9.67;;;5.70;94.50;;;;;;5119678;28;20179;-49
2022/01/23 05:12:36;;;;;;;11.90;9.67;;;5.70;94.50;;;;;;5101646;28;20417;-49
2022/01/23 05:15:02;;;;;;;12.80;9.97;;;5.80;94.50;;;;;;5119389;28;20339;-48
2022/01/23 05:17:28;;;;;;;11.53;9.70;;;5.80;94.50;;;;;;5119273;28;20406;-48
2022/01/23 05:19:53;;;;;;;13.70;10.70;;;5.80;94.40;;;;;;5119581;28;20476;-48
2022/01/23 05:22:45;;;;;;;12.47;9.40;;;5.80;94.40;;;;;;5118337;28;20597;-48
2022/01/23 05:25:27;;;;;;;11.13;9.00;;;5.80;94.30;;;;;;5118611;28;20187;-49
2022/01/23 05:27:54;;;;;;;11.43;9.50;;;5.80;94.30;;;;;;5119799;28;20417;-49
2022/01/23 05:30:20;;;;;;;11.73;10.30;;;5.80;94.30;;;;;;5119560;28;20438;-48
2022/01/23 05:32:48;;;;;;;12.47;10.30;;;5.80;94.30;;;;;;5119302;28;20471;-48
2022/01/23 05:35:19;;;;;;;10.20;8.50;;;5.80;94.20;;;;;;5119465;28;20529;-49
2022/01/23 05:37:45;;;;;;;13.00;10.17;;;5.80;94.20;;;;;;5118757;28;20414;-48
2022/01/23 05:40:14;;;;;;;12.50;10.07;;;5.80;94.20;;;;;;5118875;28;20512;-49
2022/01/23 05:42:40;;;;;;;11.17;9.67;;;5.80;94.20;;;;;;5118961;28;20478;-48
2022/01/23 05:45:08;;;;;;;11.30;9.43;;;5.80;94.20;;;;;;5100743;28;20426;-48
2022/01/23 05:47:34;;;;;;;11.27;9.17;;;5.80;94.30;;;;;;5117800;28;20628;-49
2022/01/23 05:50:00;;;;;;;12.70;10.00;;;5.80;94.30;;;;;;5118515;28;20756;-48
2022/01/23 05:52:26;;;;;;;11.70;9.60;;;5.80;94.30;;;;;;5119035;28;20715;-48
2022/01/23 05:54:51;;;;;;;10.87;9.30;;;5.80;94.30;;;;;;5118246;28;20438;-49
2022/01/23 05:57:17;;;;;;;11.40;9.00;;;5.80;94.60;;;;;;5118762;28;20414;-48
2022/01/23 05:59:43;;;;;;;10.70;9.60;;;5.80;94.30;;;;;;5119068;28;20621;-49
2022/01/23 06:02:08;;;;;;;11.40;9.60;;;5.80;94.30;;;;;;5118966;28;20180;-43
2022/01/23 06:04:34;;;;;;;14.20;9.57;;;5.80;94.40;;;;;;5119036;28;20252;-42
2022/01/23 06:07:00;;;;;;;12.87;10.50;;;5.80;94.40;;;;;;5101228;28;20429;-43
2022/01/23 06:09:26;;;;;;;12.73;10.27;;;5.80;94.40;;;;;;5118501;28;20270;-41
2022/01/23 06:11:52;;;;;;;11.70;9.47;;;5.80;94.40;;;;;;5118536;28;20184;-42
2022/01/23 06:14:19;;;;;;;12.83;10.27;;;5.80;94.80;;;;;;5118346;28;20706;-41
2022/01/23 06:16:44;;;;;;;11.00;9.30;;;5.80;94.40;;;;;;5117953;28;20184;-41
2022/01/23 06:19:10;;;;;;;11.77;10.00;;;5.80;94.50;;;;;;5117296;28;20902;-41
2022/01/23 06:21:36;;;;;;;12.50;9.50;;;5.80;94.50;;;;;;5117432;28;20207;-43
2022/01/23 06:24:21;;;;;;;14.27;10.87;;;5.80;94.50;;;;;;5116795;28;20595;-40
2022/01/23 06:26:52;;;;;;;13.40;10.30;;;5.80;94.50;;;;;;5101523;28;20180;-41
2022/01/23 06:29:19;;;;;;;13.37;10.87;;;5.80;94.50;;;;;;5117047;28;20470;-41
2022/01/23 06:31:46;;;;;;;12.90;10.40;;;5.80;94.50;;;;;;5117004;28;20494;-42
2022/01/23 06:34:12;;;;;;;12.93;10.80;;;5.80;94.60;;;;;;5117077;28;20413;-40
2022/01/23 06:36:39;;;;;;;12.37;10.27;;;5.80;94.60;;;;;;5117568;28;20800;-41
2022/01/23 06:39:07;;;;;;;14.27;11.43;;;5.80;94.60;;;;;;5117496;28;20457;-41
2022/01/23 06:41:33;;;;;;;12.87;10.93;;;5.80;94.60;;;;;;5117459;28;20491;-44
2022/01/23 06:43:58;;;;;;;13.20;10.37;;;5.80;94.60;;;;;;5118030;28;20417;-44
2022/01/23 06:46:24;;;;;;;15.47;11.47;;;5.80;94.60;;;;;;5118075;28;20437;-43
2022/01/23 06:48:51;;;;;;;13.53;10.20;;;5.80;94.60;;;;;;5118439;28;20175;-42
2022/01/23 06:51:17;;;;;;;12.07;9.53;;;5.80;94.60;;;;;;5117976;28;20460;-42
2022/01/23 06:53:45;;;;;;;13.50;11.00;;;5.80;94.60;;;;;;5118251;28;20425;-40
2022/01/23 06:56:10;;;;;;;13.37;10.13;;;5.80;94.60;;;;;;5117918;28;20428;-40
2022/01/23 06:58:36;;;;;;;12.57;9.93;;;5.80;94.60;;;;;;5119513;28;20454;-41
2022/01/23 07:01:04;;;;;;;11.70;9.93;;;5.80;94.60;;;;;;5104258;28;20164;-41
2022/01/23 07:03:29;;;;;;;12.90;10.83;;;5.80;94.60;;;;;;5103492;28;20592;-42
2022/01/23 07:05:55;;;;;;;15.33;11.80;;;5.80;94.60;;;;;;5121344;28;20425;-42
2022/01/23 07:08:21;;;;;;;13.60;11.57;;;5.80;94.60;;;;;;5121373;28;20183;-40
2022/01/23 07:10:46;;;;;;;12.00;10.70;;;5.80;94.70;;;;;;5121104;28;20704;-43
2022/01/23 07:13:12;;;;;;;15.63;11.87;;;5.80;94.70;;;;;;5103329;28;20202;-41
2022/01/23 07:15:37;;;;;;;15.53;11.00;;;5.80;94.70;;;;;;5120534;28;20205;-42
2022/01/23 07:18:03;;;;;;;15.93;11.73;;;5.80;94.70;;;;;;5120596;28;20550;-40
2022/01/23 07:20:29;;;;;;;14.00;11.03;;;5.80;94.70;;;;;;5121776;28;20268;-42
2022/01/23 07:22:56;;;;;;;13.60;10.50;;;5.80;94.60;;;;;;5121894;28;20237;-42
2022/01/23 07:25:22;;;;;;;14.37;11.77;;;5.80;94.60;;;;;;5122083;28;20248;-42
2022/01/23 07:27:51;;;;;;;13.80;10.70;;;5.90;94.60;;;;;;5121801;28;20413;-42
2022/01/23 07:30:27;;;;;;;13.47;10.40;;;5.90;94.70;;;;;;5121664;28;20199;-42
2022/01/23 07:32:53;;;;;;;14.23;10.50;;;5.90;94.60;;;;;;5121950;28;20413;-42
2022/01/23 07:35:19;;;;;;;13.47;10.90;;;5.90;94.60;;;;;;5122113;28;20421;-40
2022/01/23 07:37:44;;;;;;;13.50;10.83;;;5.90;94.60;;;;;;5121548;28;20179;-48
2022/01/23 07:40:10;;;;;;;12.23;10.43;;;5.90;94.60;;;;;;5121315;28;20180;-41
2022/01/23 07:42:36;;;;;;;13.20;10.50;;;5.90;94.50;;;;;;5122012;28;20176;-40
2022/01/23 07:45:03;;;;;;;13.93;11.17;;;5.90;94.50;;;;;;5121497;28;20417;-42
2022/01/23 07:47:29;;;;;;;14.13;11.33;;;5.90;94.50;;;;;;5103712;28;20234;-42
2022/01/23 07:49:55;;;;;;;14.53;11.70;;;6.00;94.50;;;;;;5121034;28;20520;-41
2022/01/23 07:52:23;;;;;;;13.87;11.40;;;5.90;94.40;;;;;;5121690;28;20557;-42
2022/01/23 07:54:49;;;;;;;14.23;12.27;;;5.90;94.50;;;;;;5121065;28;20850;-43
2022/01/23 07:57:14;;;;;;;12.30;10.47;;;5.90;94.50;;;;;;5119885;28;20446;-41
2022/01/23 07:59:40;;;;;;;14.47;11.87;;;5.90;94.50;;;;;;5119737;28;20327;-41
2022/01/23 08:02:06;;;;;;;12.97;10.43;;;6.00;94.50;;;;;;5119621;28;20172;-41
2022/01/23 08:04:34;;;;;;;14.73;12.00;;;6.00;94.50;;;;;;5119950;28;20184;-42
2022/01/23 08:07:11;;;;;;;12.63;10.93;;;6.00;94.50;;;;;;5120215;28;20446;-39
2022/01/23 08:09:37;;;;;;;18.57;13.63;;;6.00;94.50;;;;;;5119013;28;20429;-40
2022/01/23 08:12:04;;;;;;;15.37;11.17;;;6.00;94.50;;;;;;5120333;28;20499;-41
2022/01/23 08:14:30;;;;;;;13.63;11.23;;;6.00;94.50;;;;;;5120055;28;20531;-41
2022/01/23 08:16:55;;;;;;;13.67;11.07;;;6.00;94.40;;;;;;5101515;28;20513;-41
2022/01/23 08:19:21;;;;;;;14.53;11.97;;;6.00;94.40;;;;;;5120024;28;20479;-40
2022/01/23 08:21:47;;;;;;;14.00;11.07;;;6.10;94.50;;;;;;5119648;28;20195;-40
2022/01/23 08:24:12;;;;;;;14.93;12.50;;;6.10;94.40;;;;;;5100309;28;20187;-41
2022/01/23 08:26:38;;;;;;;15.17;11.47;;;6.10;94.40;;;;;;5101103;28;20486;-42
2022/01/23 08:29:07;;;;;;;14.70;11.57;;;6.10;94.40;;;;;;5119925;28;20232;-41
2022/01/23 08:31:33;;;;;;;13.97;11.30;;;6.20;94.40;;;;;;5120896;28;20184;-41
2022/01/23 08:33:59;;;;;;;14.07;11.60;;;6.20;94.40;;;;;;5120040;28;20461;-42
2022/01/23 08:36:25;;;;;;;15.87;12.13;;;6.20;94.30;;;;;;5119762;28;20646;-41
2022/01/23 08:38:50;;;;;;;14.63;11.93;;;6.30;94.30;;;;;;5100529;28;20203;-41
2022/01/23 08:43:48;;;;;;;14.93;11.60;;;6.40;94.30;;;;;;5107646;28;20176;-41
2022/01/23 08:46:16;;;;;;;15.83;13.60;;;6.40;94.20;;;;;;5120515;28;20834;-41
2022/01/23 08:48:48;;;;;;;15.13;12.63;;;6.50;94.20;;;;;;5118703;28;20417;-41
2022/01/23 08:51:14;;;;;;;13.53;11.53;;;6.50;94.10;;;;;;5118520;28;20532;-41
2022/01/23 08:53:42;;;;;;;14.33;11.77;;;6.60;94.00;;;;;;5101278;28;20755;-41
2022/01/23 08:56:08;;;;;;;15.50;12.83;;;6.60;94.00;;;;;;5117436;28;20175;-41
2022/01/23 08:58:33;;;;;;;15.47;12.33;;;6.70;93.90;;;;;;5116291;28;20476;-41
2022/01/23 09:00:59;;;;;;;15.90;12.77;;;6.70;93.80;;;;;;5116712;28;20184;-42
2022/01/23 09:03:24;;;;;;;15.93;13.00;;;6.80;93.80;;;;;;5116986;28;20202;-42
2022/01/23 09:05:50;;;;;;;16.47;13.10;;;6.90;93.80;;;;;;5117871;28;20225;-42
2022/01/23 09:08:16;;;;;;;17.23;13.00;;;7.00;93.70;;;;;;5118594;28;20180;-42
2022/01/23 09:10:52;;;;;;;17.00;14.27;;;7.00;93.60;;;;;;5118327;28;20183;-41
2022/01/23 09:13:40;;;;;;;17.13;13.40;;;7.10;93.50;;;;;;5118158;28;20426;-42
2022/01/23 09:16:07;;;;;;;16.80;13.50;;;7.20;93.40;;;;;;5116191;28;20426;-40
2022/01/23 09:18:33;;;;;;;15.40;12.90;;;7.30;93.30;;;;;;5101022;28;20476;-41
2022/01/23 09:20:59;;;;;;;16.03;12.80;;;7.30;93.20;;;;;;5118853;28;20406;-41
2022/01/23 09:23:25;;;;;;;14.43;12.20;;;7.40;93.10;;;;;;5119122;28;20406;-54
2022/01/23 09:25:51;;;;;;;16.77;13.27;;;7.40;93.00;;;;;;5118580;28;20421;-42
2022/01/23 09:28:19;;;;;;;16.73;13.10;;;7.50;93.00;;;;;;5100622;28;20557;-43
2022/01/23 09:30:49;;;;;;;16.57;13.80;;;7.50;92.90;;;;;;5100684;28;20422;-42
2022/01/23 09:33:17;;;;;;;15.30;12.90;;;7.50;92.80;;;;;;5118552;28;20435;-43
2022/01/23 09:35:42;;;;;;;14.83;13.20;;;7.50;92.70;;;;;;5118938;28;20446;-42
2022/01/23 09:38:10;;;;;;;19.83;16.40;;;7.50;92.70;;;;;;5118515;28;20571;-41
2022/01/23 09:40:40;;;;;;;18.37;15.23;;;7.50;92.70;;;;;;5118038;28;20244;-41
2022/01/23 09:43:15;;;;;;;17.00;14.70;;;7.60;92.70;;;;;;5100435;28;20432;-43
2022/01/23 09:45:46;;;;;;;16.97;14.87;;;7.60;92.70;;;;;;5118038;28;20498;-42
2022/01/23 09:48:12;;;;;;;18.13;14.60;;;7.70;92.70;;;;;;5118117;28;20540;-42
2022/01/23 09:50:40;;;;;;;18.60;14.97;;;7.80;92.70;;;;;;5117961;28;20509;-43
2022/01/23 09:53:06;;;;;;;17.93;14.57;;;7.90;93.00;;;;;;5100285;28;20289;-42
2022/01/23 09:55:33;;;;;;;15.87;14.20;;;8.00;92.60;;;;;;5118079;28;20456;-42
2022/01/23 09:58:00;;;;;;;17.10;14.47;;;8.20;92.50;;;;;;5117344;28;20451;-41
2022/01/23 10:00:28;;;;;;;18.97;15.37;;;8.30;92.30;;;;;;5117744;28;20761;-41
2022/01/23 10:02:54;;;;;;;15.73;13.60;;;8.40;92.10;;;;;;5099059;28;20721;-42
2022/01/23 10:05:20;;;;;;;15.40;13.40;;;8.60;92.00;;;;;;5083186;28;20865;-41
2022/01/23 10:07:46;;;;;;;17.20;14.57;;;8.70;91.80;;;;;;5118054;28;20422;-41
2022/01/23 10:10:24;;;;;;;16.73;14.70;;;8.70;91.60;;;;;;5118078;28;20439;-43
2022/01/23 10:12:58;;;;;;;15.63;13.57;;;8.70;91.40;;;;;;5118586;28;20405;-43
2022/01/23 10:15:26;;;;;;;7.80;6.20;;;8.80;91.40;;;;;;5117331;28;20418;-44
2022/01/23 10:17:53;;;;;;;9.53;5.80;;;10.40;99.90;;;;;;5118170;28;20419;-44
2022/01/23 10:20:26;;;;;;;9.60;5.63;;;12.30;99.90;;;;;;5083038;28;20836;-44
2022/01/23 10:22:54;;;;;;;9.00;6.20;;;13.50;99.90;;;;;;5117739;28;20441;-45
2022/01/23 10:25:25;;;;;;;11.87;5.77;;;14.40;97.70;;;;;;5116879;28;20482;-45
2022/01/23 10:28:07;;;;;;;8.83;6.00;;;15.20;95.20;;;;;;5116024;28;20413;-45
2022/01/23 10:30:55;;;;;;;9.10;5.90;;;15.90;93.30;;;;;;5098019;28;20512;-44
2022/01/23 10:33:32;;;;;;;6.33;5.43;;;16.40;91.50;;;;;;5098132;28;20436;-48
2022/01/23 10:36:00;;;;;;;6.10;5.30;;;16.60;90.20;;;;;;5117231;28;20473;-46
2022/01/23 10:38:32;;;;;;;6.07;4.50;;;17.00;88.80;;;;;;5118010;28;20483;-46
2022/01/23 10:41:14;;;;;;;5.67;4.60;;;17.20;87.10;;;;;;5117511;28;20409;-44
2022/01/23 10:49:20;;;;;;;10.77;6.17;;;17.50;82.10;;;;;;5042605;28;20428;-41
2022/01/23 10:51:49;;;;;;;7.47;6.53;;;17.00;79.20;;;;;;5114937;28;20533;-42
2022/01/23 10:54:21;;;;;;;8.10;7.30;;;16.50;76.50;;;;;;5114535;28;20846;-41
2022/01/23 10:56:56;;;;;;;7.40;6.73;;;15.90;74.80;;;;;;5114904;28;20426;-39
2022/01/23 10:59:22;;;;;;;8.40;7.67;;;15.30;73.60;;;;;;5115497;28;20573;-41
2022/01/23 11:02:21;;;;;;;8.37;7.60;;;14.70;73.20;;;;;;5115149;28;20412;-41
2022/01/23 11:04:54;;;;;;;8.97;8.17;;;14.20;72.80;;;;;;5056572;28;20440;-43
2022/01/23 11:07:21;;;;;;;8.57;7.83;;;13.80;73.00;;;;;;5116276;28;20454;-42
2022/01/23 11:09:46;;;;;;;8.63;7.83;;;13.60;72.70;;;;;;5115901;28;20431;-40
2022/01/23 11:17:52;;;;;;;8.90;8.00;;;13.10;78.60;;;;;;5099585;28;20811;-43
2022/01/23 11:20:48;;;;;;;7.73;7.03;;;12.90;76.40;;;;;;5115704;28;20526;-42
2022/01/23 11:23:27;;;;;;;9.37;8.10;;;12.70;75.60;;;;;;5099254;28;20494;-43
2022/01/23 11:25:55;;;;;;;9.77;7.87;;;12.40;74.80;;;;;;5114417;28;20419;-42
2022/01/23 11:28:47;;;;;;;8.57;7.70;;;12.10;74.80;;;;;;5114461;28;20481;-43
2022/01/23 11:31:18;;;;;;;9.30;8.30;;;11.90;74.70;;;;;;5115987;28;20446;-42
2022/01/23 11:33:45;;;;;;;8.40;7.60;;;11.70;74.80;;;;;;5116215;28;20404;-44
2022/01/23 11:36:11;;;;;;;10.27;8.20;;;11.60;74.90;;;;;;5115171;28;20531;-41
2022/01/23 11:38:39;;;;;;;9.77;8.80;;;11.50;74.80;;;;;;5097607;28;20479;-42
2022/01/23 11:54:46;;;;;;;10.17;8.13;;;10.60;74.50;;;;;;5119944;28;20436;-41
2022/01/23 11:57:37;;;;;;;8.30;7.30;;;10.60;74.80;;;;;;5120217;28;20769;-43
2022/01/23 12:00:20;;;;;;;11.37;7.87;;;10.50;75.10;;;;;;5119947;28;20459;-44
2022/01/23 12:03:12;;;;;;;8.30;7.50;;;10.50;75.30;;;;;;5120536;28;20885;-42
2022/01/23 12:05:41;;;;;;;9.73;8.20;;;10.50;75.40;;;;;;5119144;28;20492;-44
2022/01/23 12:08:17;;;;;;;9.07;7.37;;;10.60;75.60;;;;;;5117403;28;20713;-42
2022/01/23 12:16:20;;;;;;;8.97;8.07;;;10.70;75.40;;;;;;5118187;28;20512;-43
2022/01/23 12:16:59;;;;;;;10.90;8.90;;;10.70;75.30;;;;;;5119413;28;20417;-43
2022/01/23 12:19:33;;;;;;;10.60;7.60;;;10.80;75.20;;;;;;5119283;28;20560;-42
2022/01/23 12:22:29;;;;;;;8.30;7.40;;;10.80;75.00;;;;;;5119921;28;20413;-43
2022/01/23 12:24:58;;;;;;;10.80;8.37;;;10.80;74.90;;;;;;5101203;28;20447;-42
2022/01/23 12:27:28;;;;;;;8.87;7.70;;;10.90;74.90;;;;;;5119443;28;20417;-42
2022/01/23 12:29:55;;;;;;;8.47;7.57;;;10.90;74.80;;;;;;5119141;28;20512;-41
2022/01/23 12:32:29;;;;;;;7.60;6.87;;;10.80;74.60;;;;;;5118420;28;20501;-43
2022/01/23 12:34:58;;;;;;;8.43;6.57;;;10.80;74.60;;;;;;5102386;28;20457;-43
2022/01/23 12:37:25;;;;;;;8.30;6.90;;;10.80;74.60;;;;;;5117611;28;20429;-42
2022/01/23 12:40:28;;;;;;;8.07;7.27;;;10.80;74.60;;;;;;5113081;27;20467;-43
2022/01/23 12:43:10;;;;;;;7.73;6.73;;;10.80;74.40;;;;;;5115771;28;20409;-42
2022/01/23 12:45:54;;;;;;;8.30;7.37;;;10.70;74.20;;;;;;5115142;28;20425;-42
2022/01/23 12:48:25;;;;;;;8.53;6.33;;;10.70;74.10;;;;;;5116901;28;20438;-40
2022/01/23 12:51:05;;;;;;;7.20;6.50;;;10.60;73.90;;;;;;5117747;28;20433;-41
2022/01/23 12:53:47;;;;;;;8.73;6.83;;;10.60;73.70;;;;;;5115108;28;20426;-41
2022/01/23 12:56:18;;;;;;;9.43;7.73;;;10.50;73.50;;;;;;5118423;28;20815;-42
2022/01/23 12:59:34;;;;;;;9.90;7.87;;;10.50;73.10;;;;;;5098696;28;20470;-41
2022/01/23 13:01:57;;;;;;;8.70;7.20;;;10.40;72.60;;;;;;5095035;28;20443;-41
2022/01/23 13:04:29;;;;;;;8.10;7.30;;;10.30;72.60;;;;;;5081309;28;20419;-41
2022/01/23 13:06:59;;;;;;;8.03;6.90;;;10.20;72.80;;;;;;5098226;28;20445;-42
2022/01/23 13:12:48;;;;;;;6.40;3.57;;;10.70;95.10;;;;;;5098694;28;20431;-43
2022/01/23 13:31:51;;;;;;;7.33;6.57;;;13.40;82.80;;;;;;5119840;28;20481;-42
2022/01/23 13:34:33;;;;;;;7.20;6.50;;;13.00;79.80;;;;;;5086305;28;20430;-41
2022/01/23 13:37:21;;;;;;;6.17;5.57;;;12.70;78.50;;;;;;5102033;28;20423;-43
2022/01/23 13:40:14;;;;;;;7.43;5.57;;;12.40;76.20;;;;;;5101944;28;20474;-40
2022/01/23 13:59:35;;;;;;;7.03;4.87;;;10.90;71.50;;;;;;5118524;28;20468;-41
2022/01/23 14:02:15;;;;;;;6.07;5.50;;;10.80;71.30;;;;;;5117281;28;20433;-43
2022/01/23 14:05:11;;;;;;;5.97;5.20;;;10.60;71.20;;;;;;5118404;28;20484;-43
2022/01/23 14:07:39;;;;;;;6.50;5.50;;;10.50;71.10;;;;;;5099336;28;20429;-41
2022/01/23 14:10:24;;;;;;;5.90;5.23;;;10.40;70.80;;;;;;5116970;28;20436;-44
2022/01/23 14:12:52;;;;;;;6.07;5.47;;;10.30;70.70;;;;;;5117176;28;20505;-42
2022/01/23 14:15:24;;;;;;;6.73;4.53;;;10.20;70.60;;;;;;5116462;28;20420;-41
2022/01/23 14:18:09;;;;;;;5.83;4.80;;;10.20;70.70;;;;;;5116509;28;20430;-41
2022/01/23 14:20:38;;;;;;;5.67;5.13;;;10.10;70.50;;;;;;5117860;28;20713;-41
2022/01/23 14:23:21;;;;;;;6.57;4.67;;;10.10;70.40;;;;;;5117662;28;20780;-43
2022/01/23 14:25:51;;;;;;;4.73;4.30;;;10.00;70.10;;;;;;5116689;28;20768;-42
2022/01/23 14:28:23;;;;;;;6.27;5.53;;;10.00;70.10;;;;;;5115653;28;20418;-41
2022/01/23 14:30:55;;;;;;;5.00;4.50;;;9.90;71.40;;;;;;5097970;28;20425;-42
2022/01/23 14:33:40;;;;;;;6.10;5.20;;;9.90;71.40;;;;;;5116968;28;20792;-42
2022/01/23 14:36:17;;;;;;;4.20;3.77;;;9.90;71.30;;;;;;5117607;28;20835;-41
2022/01/23 14:39:03;;;;;;;4.70;4.20;;;9.80;70.90;;;;;;5116618;28;20616;-41
2022/01/23 14:41:34;;;;;;;5.43;4.57;;;9.70;70.40;;;;;;5099699;28;20452;-42
2022/01/23 14:44:01;;;;;;;5.53;5.03;;;9.70;70.20;;;;;;5117777;28;20417;-41
2022/01/23 14:46:26;;;;;;;5.00;4.50;;;9.60;70.00;;;;;;5117947;28;20482;-41
2022/01/23 14:48:59;;;;;;;5.53;4.93;;;9.50;70.00;;;;;;5117702;28;20421;-41
2022/01/23 14:51:26;;;;;;;6.13;5.30;;;9.40;69.90;;;;;;5117349;28;20549;-41
2022/01/23 14:53:52;;;;;;;6.20;5.00;;;9.40;70.00;;;;;;5099664;28;20419;-40
2022/01/23 14:56:20;;;;;;;6.03;5.40;;;9.40;69.90;;;;;;5116895;28;20424;-41
2022/01/23 14:58:47;;;;;;;5.80;5.03;;;9.30;69.40;;;;;;5097553;28;20468;-41
2022/01/23 15:01:14;;;;;;;5.70;5.13;;;9.20;69.10;;;;;;5078667;28;20434;-42
2022/01/23 15:03:44;;;;;;;4.80;4.30;;;9.10;69.20;;;;;;5096198;28;20813;-40
2022/01/23 15:06:10;;;;;;;5.20;4.63;;;9.10;69.10;;;;;;5106902;28;20487;-42
2022/01/23 15:08:38;;;;;;;4.97;4.20;;;9.00;68.90;;;;;;5117121;28;20438;-42
2022/01/23 15:11:07;;;;;;;6.07;4.90;;;8.90;68.50;;;;;;5109803;28;20263;-42
2022/01/23 15:13:35;;;;;;;5.23;4.40;;;8.90;68.40;;;;;;5102247;28;20854;-42
2022/01/23 15:16:03;;;;;;;6.13;5.23;;;8.80;68.40;;;;;;5117565;28;20512;-41
2022/01/23 15:18:29;;;;;;;4.20;3.73;;;8.70;68.60;;;;;;5116834;28;20890;-42
2022/01/23 15:20:54;;;;;;;5.40;4.40;;;8.70;69.10;;;;;;5120772;28;20423;-42
2022/01/23 15:23:20;;;;;;;5.17;4.67;;;8.70;69.40;;;;;;5121848;28;20206;-42
2022/01/23 15:25:46;;;;;;;5.47;4.37;;;8.70;69.50;;;;;;5121254;28;20203;-41
2022/01/23 15:28:15;;;;;;;4.90;4.40;;;8.60;69.60;;;;;;5121692;28;20179;-41
2022/01/23 15:30:43;;;;;;;5.00;4.50;;;8.60;69.70;;;;;;5121176;28;20432;-42
2022/01/23 15:33:09;;;;;;;5.40;4.80;;;8.50;69.90;;;;;;5103657;28;20418;-42
2022/01/23 15:35:37;;;;;;;9.00;7.17;;;8.40;69.80;;;;;;5103344;28;20456;-41
2022/01/23 15:38:03;;;;;;;6.83;6.13;;;8.40;69.90;;;;;;5118985;28;20180;-43
2022/01/23 15:40:29;;;;;;;10.03;9.03;;;8.30;69.90;;;;;;5119531;28;20428;-41
2022/01/23 15:42:55;;;;;;;9.07;8.23;;;8.30;70.00;;;;;;5119019;28;20455;-42
2022/01/23 15:45:23;;;;;;;8.00;7.30;;;8.20;70.10;;;;;;5101060;28;20177;-41
2022/01/23 15:47:49;;;;;;;8.20;7.40;;;8.10;70.10;;;;;;5119993;28;20687;-42
2022/01/23 15:50:16;;;;;;;6.97;6.37;;;8.10;70.40;;;;;;5100848;28;20427;-42
2022/01/23 15:52:42;;;;;;;6.93;6.23;;;8.10;70.80;;;;;;5121285;28;20184;-42
2022/01/23 15:55:10;;;;;;;6.20;5.60;;;8.00;71.80;;;;;;5120608;28;20716;-40
2022/01/23 15:57:36;;;;;;;6.43;5.83;;;8.00;71.40;;;;;;5118943;28;20512;-42
2022/01/23 16:00:06;;;;;;;7.67;5.90;;;8.00;71.60;;;;;;5120147;28;20472;-42
2022/01/23 16:02:32;;;;;;;5.33;4.80;;;7.90;71.80;;;;;;5119829;28;20424;-41
2022/01/23 16:04:59;;;;;;;5.33;4.83;;;7.90;72.00;;;;;;5119880;28;20694;-41
2022/01/23 16:07:26;;;;;;;5.40;4.70;;;7.90;72.30;;;;;;5119533;28;20178;-42
2022/01/23 16:09:51;;;;;;;6.70;6.00;;;7.80;72.40;;;;;;5119112;28;20468;-40
2022/01/23 16:12:17;;;;;;;4.63;4.00;;;7.80;72.60;;;;;;5118625;28;20468;-42
2022/01/23 16:14:43;;;;;;;6.50;5.37;;;7.80;72.90;;;;;;5117829;28;20453;-41
2022/01/23 16:17:10;;;;;;;5.53;4.40;;;7.80;73.00;;;;;;5118412;28;20764;-41
2022/01/23 16:19:35;;;;;;;5.67;4.80;;;7.70;73.10;;;;;;5119391;28;20463;-41
2022/01/23 16:22:03;;;;;;;5.60;5.10;;;7.70;73.40;;;;;;5119409;28;20422;-41
2022/01/23 16:24:29;;;;;;;6.23;5.00;;;7.70;73.60;;;;;;5119512;28;20179;-42
2022/01/23 16:26:56;;;;;;;5.77;5.00;;;7.60;73.70;;;;;;5119905;28;20447;-43
2022/01/23 16:29:24;;;;;;;5.40;4.90;;;7.60;73.80;;;;;;5102198;28;20251;-44
2022/01/23 16:31:51;;;;;;;5.53;4.83;;;7.60;73.90;;;;;;5118770;28;20432;-41
2022/01/23 16:34:18;;;;;;;5.60;5.00;;;7.60;74.00;;;;;;5119096;28;20429;-39